createdAt,value
2023-10-15T00:00:26.924Z,12.18
2023-10-15T00:02:54.352Z,11.80
2023-10-15T00:05:22.780Z,9.35
2023-10-15T00:07:50.541Z,9.10
2023-10-15T00:10:20.141Z,9.50
2023-10-15T00:12:48.792Z,9.07
2023-10-15T00:15:19.838Z,8.90
2023-10-15T00:17:53.430Z,11.70
2023-10-15T00:20:21.506Z,11.82
2023-10-15T00:22:49.771Z,8.82
2023-10-15T00:25:17.525Z,9.00
2023-10-15T00:27:45.622Z,12.57
2023-10-15T00:30:20.418Z,10.23
2023-10-15T00:32:48.754Z,12.00
2023-10-15T00:35:20.865Z,11.43
2023-10-15T00:37:57.634Z,11.38
2023-10-15T00:40:28.935Z,11.02
2023-10-15T00:42:59.102Z,10.38
2023-10-15T00:45:26.092Z,10.55
2023-10-15T00:48:23.182Z,9.60
2023-10-15T00:50:50.162Z,10.02
2023-10-15T00:53:24.647Z,8.13
2023-10-15T00:55:55.944Z,10.07
2023-10-15T00:58:33.131Z,10.15
2023-10-15T01:01:02.169Z,10.75
2023-10-15T01:03:34.913Z,8.35
2023-10-15T01:06:04.262Z,9.48
2023-10-15T01:08:39.569Z,9.73
2023-10-15T01:11:12.089Z,10.82
2023-10-15T01:13:39.723Z,13.25
2023-10-15T01:16:09.747Z,8.10
2023-10-15T01:18:37.842Z,8.52
2023-10-15T01:21:11.062Z,9.40
2023-10-15T01:23:42.691Z,9.35
2023-10-15T01:26:24.713Z,9.15
2023-10-15T01:28:54.438Z,9.18
2023-10-15T01:31:25.886Z,10.15
2023-10-15T01:33:54.124Z,7.85
2023-10-15T01:36:31.459Z,8.93
2023-10-15T01:39:11.092Z,9.60
2023-10-15T01:41:41.132Z,10.35
2023-10-15T01:44:08.532Z,7.35
2023-10-15T01:46:47.320Z,8.25
2023-10-15T01:49:32.150Z,7.55
2023-10-15T01:52:06.729Z,8.00
2023-10-15T01:54:34.290Z,7.55
2023-10-15T01:57:02.117Z,7.22
2023-10-15T01:59:29.191Z,9.55
2023-10-15T02:01:57.647Z,8.65
2023-10-15T02:04:27.874Z,8.77
2023-10-15T02:06:56.616Z,6.88
2023-10-15T02:09:24.090Z,7.78
2023-10-15T02:11:55.348Z,6.28
2023-10-15T02:14:24.973Z,7.53
2023-10-15T02:16:52.507Z,7.43
2023-10-15T02:19:34.817Z,7.18
2023-10-15T02:22:02.818Z,7.95
2023-10-15T02:24:34.844Z,7.65
2023-10-15T02:27:10.174Z,8.05
2023-10-15T02:29:37.314Z,6.38
2023-10-15T02:32:22.621Z,7.90
2023-10-15T02:34:53.517Z,8.68
2023-10-15T02:37:24.931Z,7.55
2023-10-15T02:39:52.066Z,8.55
2023-10-15T02:42:20.821Z,8.27
2023-10-15T02:44:53.425Z,7.93
2023-10-15T02:47:33.007Z,7.95
2023-10-15T02:50:04.514Z,7.57
2023-10-15T02:52:46.498Z,8.00
2023-10-15T02:55:16.728Z,7.57
2023-10-15T02:57:44.066Z,8.32
2023-10-15T03:00:29.625Z,6.72
2023-10-15T03:02:57.566Z,8.10
2023-10-15T03:05:31.628Z,6.95
2023-10-15T03:08:02.003Z,7.57
2023-10-15T03:10:46.620Z,5.95
2023-10-15T03:13:16.847Z,6.63
2023-10-15T03:15:54.189Z,6.32
2023-10-15T03:18:24.652Z,8.93
2023-10-15T03:21:01.620Z,7.38
2023-10-15T03:23:28.545Z,6.78
2023-10-15T03:25:58.796Z,7.45
2023-10-15T03:28:26.818Z,6.35
2023-10-15T03:30:57.207Z,7.55
2023-10-15T03:33:24.773Z,6.65
2023-10-15T03:35:57.711Z,5.97
2023-10-15T03:38:33.765Z,6.90
2023-10-15T03:41:13.502Z,7.13
2023-10-15T03:43:41.199Z,6.38
2023-10-15T03:46:20.602Z,7.30
2023-10-15T03:48:51.365Z,7.85
2023-10-15T03:51:24.952Z,8.85
2023-10-15T03:53:51.886Z,7.47
2023-10-15T03:56:20.631Z,7.20
2023-10-15T03:58:47.641Z,6.93
2023-10-15T04:01:17.387Z,6.72
2023-10-15T04:03:48.563Z,6.63
2023-10-15T04:06:20.077Z,7.77
2023-10-15T04:09:05.546Z,6.50
2023-10-15T04:11:43.403Z,6.40
2023-10-15T04:14:29.756Z,6.05
2023-10-15T04:16:58.682Z,6.38
2023-10-15T04:19:30.828Z,7.45
2023-10-15T04:22:01.293Z,7.60
2023-10-15T04:24:37.709Z,6.22
2023-10-15T04:27:07.275Z,6.97
2023-10-15T04:29:45.476Z,6.75
2023-10-15T04:32:15.758Z,7.30
2023-10-15T04:34:42.701Z,7.45
2023-10-15T04:37:11.451Z,6.93
2023-10-15T04:39:58.242Z,7.13
2023-10-15T04:42:38.902Z,7.65
2023-10-15T04:45:25.246Z,7.32
2023-10-15T04:48:00.694Z,7.45
2023-10-15T04:50:36.799Z,7.18
2023-10-15T04:53:39.368Z,6.18
2023-10-15T04:56:06.469Z,6.20
2023-10-15T04:58:33.354Z,6.93
2023-10-15T05:01:00.678Z,8.05
2023-10-15T05:03:27.753Z,6.32
2023-10-15T05:06:00.696Z,6.82
2023-10-15T05:08:27.675Z,7.18
2023-10-15T05:10:55.207Z,5.63
2023-10-15T05:13:22.141Z,6.95
2023-10-15T05:15:49.504Z,7.28
2023-10-15T05:18:16.720Z,6.13
2023-10-15T05:20:51.365Z,6.32
2023-10-15T05:23:19.276Z,6.75
2023-10-15T05:25:46.377Z,6.55
2023-10-15T05:28:15.858Z,7.50
2023-10-15T05:30:43.529Z,7.20
2023-10-15T05:33:13.423Z,7.15
2023-10-15T05:35:44.295Z,7.22
2023-10-15T05:38:11.323Z,6.88
2023-10-15T05:40:38.828Z,6.18
2023-10-15T05:43:08.736Z,7.50
2023-10-15T05:45:35.643Z,6.93
2023-10-15T05:48:03.030Z,6.70
2023-10-15T05:50:30.411Z,6.38
2023-10-15T05:52:57.367Z,9.52
2023-10-15T05:55:24.261Z,6.20
2023-10-15T05:57:51.838Z,6.20
2023-10-15T06:00:19.286Z,8.93
2023-10-15T06:02:47.444Z,8.20
2023-10-15T06:05:17.834Z,7.93
2023-10-15T06:07:45.406Z,7.63
2023-10-15T06:10:15.444Z,6.57
2023-10-15T06:12:42.728Z,6.63
2023-10-15T06:15:10.344Z,7.35
2023-10-15T06:17:37.589Z,6.25
2023-10-15T06:20:14.139Z,7.13
2023-10-15T06:22:42.343Z,7.10
2023-10-15T06:25:15.438Z,9.00
2023-10-15T06:27:42.525Z,8.25
2023-10-15T06:30:24.569Z,8.65
2023-10-15T06:32:53.740Z,6.38
2023-10-15T06:35:23.069Z,7.80
2023-10-15T06:37:51.390Z,8.35
2023-10-15T06:40:23.647Z,6.10
2023-10-15T06:42:53.014Z,7.88
2023-10-15T06:45:20.721Z,7.13
2023-10-15T06:47:48.877Z,7.45
2023-10-15T06:50:16.165Z,6.05
2023-10-15T06:52:43.780Z,7.88
2023-10-15T06:55:14.542Z,9.00
2023-10-15T06:57:41.761Z,7.47
2023-10-15T07:00:12.204Z,8.48
2023-10-15T07:02:39.144Z,6.45
2023-10-15T07:05:06.447Z,6.15
2023-10-15T07:07:36.777Z,7.07
2023-10-15T07:10:07.238Z,8.93
2023-10-15T07:12:35.403Z,7.32
2023-10-15T07:15:02.735Z,7.78
2023-10-15T07:17:30.622Z,7.80
2023-10-15T07:19:57.570Z,8.48
2023-10-15T07:22:24.682Z,9.52
2023-10-15T07:24:51.730Z,9.38
2023-10-15T07:27:18.605Z,6.75
2023-10-15T07:29:46.682Z,9.00
2023-10-15T07:32:13.914Z,7.57
2023-10-15T07:34:40.941Z,6.65
2023-10-15T07:37:08.418Z,7.10
2023-10-15T07:39:36.780Z,8.38
2023-10-15T07:42:03.841Z,7.53
2023-10-15T07:44:30.764Z,8.75
2023-10-15T07:46:57.701Z,8.13
2023-10-15T07:49:25.890Z,8.07
2023-10-15T07:51:52.857Z,10.07
2023-10-15T07:54:19.756Z,6.50
2023-10-15T07:56:46.646Z,8.73
2023-10-15T07:59:13.617Z,7.10
2023-10-15T08:01:40.834Z,8.30
2023-10-15T08:04:08.199Z,6.95
2023-10-15T08:06:35.394Z,10.45
2023-10-15T08:09:02.523Z,8.60
2023-10-15T08:11:29.443Z,8.25
2023-10-15T08:13:56.401Z,9.35
2023-10-15T08:16:23.488Z,8.30
2023-10-15T08:18:50.483Z,8.70
2023-10-15T08:21:17.403Z,7.72
2023-10-15T08:23:44.424Z,7.85
2023-10-15T08:26:11.637Z,7.03
2023-10-15T08:28:39.252Z,8.00
2023-10-15T08:31:06.250Z,8.32
2023-10-15T08:33:33.089Z,8.07
2023-10-15T08:36:03.252Z,8.00
2023-10-15T08:38:30.878Z,8.57
2023-10-15T08:40:59.572Z,8.48
2023-10-15T08:43:30.485Z,8.20
2023-10-15T08:45:59.772Z,6.72
2023-10-15T08:48:26.916Z,9.38
2023-10-15T08:50:54.831Z,6.72
2023-10-15T08:53:23.345Z,7.38
2023-10-15T08:55:50.413Z,8.75
2023-10-15T08:58:21.581Z,7.82
2023-10-15T09:00:48.799Z,8.65
2023-10-15T09:03:16.517Z,8.15
2023-10-15T09:05:43.810Z,11.98
2023-10-15T09:08:13.966Z,8.40
2023-10-15T09:10:44.711Z,9.27
2023-10-15T09:13:15.972Z,9.25
2023-10-15T09:15:44.423Z,9.27
2023-10-15T09:18:17.192Z,8.07
2023-10-15T09:20:51.586Z,9.90
2023-10-15T09:23:23.100Z,8.50
2023-10-15T09:25:54.643Z,8.85
2023-10-15T09:28:22.202Z,9.18
2023-10-15T09:30:49.415Z,8.90
2023-10-15T09:33:18.635Z,8.40
2023-10-15T09:35:46.165Z,6.47
2023-10-15T09:38:16.049Z,8.32
2023-10-15T09:40:45.339Z,9.38
2023-10-15T09:43:13.561Z,8.05
2023-10-15T09:45:42.564Z,8.55
2023-10-15T09:48:12.905Z,9.50
2023-10-15T09:50:39.953Z,7.03
2023-10-15T09:53:14.057Z,8.18
2023-10-15T09:55:42.415Z,7.40
2023-10-15T09:58:12.426Z,9.10
2023-10-15T10:00:56.004Z,9.43
2023-10-15T10:04:28.533Z,9.65
2023-10-15T10:07:02.057Z,7.82
2023-10-15T10:09:43.515Z,7.80
2023-10-15T10:12:24.456Z,8.00
2023-10-15T10:15:03.695Z,8.80
2023-10-15T10:17:30.797Z,10.32
2023-10-15T10:19:58.042Z,8.40
2023-10-15T10:22:25.810Z,7.38
2023-10-15T10:24:54.182Z,8.88
2023-10-15T10:27:21.213Z,8.85
2023-10-15T10:29:54.519Z,8.82
2023-10-15T10:32:24.681Z,6.00
2023-10-15T10:35:15.808Z,6.90
2023-10-15T10:38:12.123Z,6.18
2023-10-15T10:40:58.108Z,5.95
2023-10-15T10:43:27.279Z,5.72
2023-10-15T10:46:03.672Z,7.57
2023-10-15T10:48:34.500Z,6.07
2023-10-15T10:51:22.449Z,6.80
2023-10-15T10:54:00.834Z,6.88
2023-10-15T10:56:39.963Z,6.90
2023-10-15T10:59:11.762Z,7.00
2023-10-15T11:01:43.328Z,8.02
2023-10-15T11:04:11.566Z,6.53
2023-10-15T11:06:39.455Z,5.40
2023-10-15T11:09:16.477Z,5.63
2023-10-15T11:11:45.391Z,9.23
2023-10-15T11:14:14.227Z,7.95
2023-10-15T11:16:42.615Z,9.20
2023-10-15T11:19:25.545Z,6.60
2023-10-15T11:21:55.609Z,8.95
2023-10-15T11:24:26.262Z,6.38
2023-10-15T11:26:56.278Z,8.80
2023-10-15T11:29:24.534Z,7.40
2023-10-15T11:31:57.075Z,6.18
2023-10-15T11:34:26.381Z,6.10
2023-10-15T11:36:59.278Z,9.35
2023-10-15T11:39:30.851Z,6.25
2023-10-15T11:41:58.222Z,6.22
2023-10-15T11:44:31.965Z,7.10
2023-10-15T11:47:10.207Z,7.20
2023-10-15T11:49:39.309Z,8.35
2023-10-15T11:52:12.955Z,5.40
2023-10-15T11:54:44.894Z,8.23
2023-10-15T11:57:19.721Z,7.30
2023-10-15T11:59:51.122Z,7.35
2023-10-15T12:02:20.171Z,6.60
2023-10-15T12:04:52.868Z,6.90
2023-10-15T12:07:22.955Z,6.70
2023-10-15T12:09:50.725Z,6.72
2023-10-15T12:12:19.426Z,8.15
2023-10-15T12:14:46.711Z,5.97
2023-10-15T12:17:17.244Z,6.03
2023-10-15T12:19:46.580Z,6.40
2023-10-15T12:22:16.642Z,8.38
2023-10-15T12:24:44.341Z,7.32
2023-10-15T12:27:11.719Z,4.78
2023-10-15T12:29:40.602Z,5.15
2023-10-15T12:32:11.865Z,7.10
2023-10-15T12:34:39.171Z,5.32
2023-10-15T12:37:09.438Z,7.90
2023-10-15T12:39:41.988Z,4.90
2023-10-15T12:42:12.662Z,6.10
2023-10-15T12:44:44.825Z,5.50
2023-10-15T12:47:13.362Z,6.22
2023-10-15T12:49:40.950Z,4.68
2023-10-15T12:52:09.522Z,5.03
2023-10-15T12:54:37.259Z,5.22
2023-10-15T12:57:07.022Z,5.75
2023-10-15T12:59:37.285Z,5.38
2023-10-15T13:02:05.554Z,7.35
2023-10-15T13:04:32.836Z,5.00
2023-10-15T13:06:59.970Z,5.22
2023-10-15T13:09:34.072Z,7.18
2023-10-15T13:12:02.871Z,5.78
2023-10-15T13:14:30.070Z,5.85
2023-10-15T13:16:58.314Z,5.82
2023-10-15T13:19:25.930Z,5.20
2023-10-15T13:21:53.101Z,4.20
2023-10-15T13:24:20.037Z,4.45
2023-10-15T13:26:48.309Z,9.45
2023-10-15T13:29:16.230Z,5.78
2023-10-15T13:31:43.510Z,4.97
2023-10-15T13:34:10.934Z,9.07
2023-10-15T13:36:41.300Z,5.63
2023-10-15T13:39:16.608Z,6.78
2023-10-15T13:41:43.601Z,5.72
2023-10-15T13:44:11.356Z,15.18
2023-10-15T13:46:38.379Z,9.63
2023-10-15T13:49:07.473Z,6.70
2023-10-15T13:51:36.965Z,6.15
2023-10-15T13:54:03.981Z,9.48
2023-10-15T13:56:30.897Z,6.90
2023-10-15T13:58:57.781Z,5.55
2023-10-15T14:01:25.062Z,4.32
2023-10-15T14:03:54.295Z,7.10
2023-10-15T14:06:21.375Z,6.97
2023-10-15T14:08:48.320Z,9.85
2023-10-15T14:11:15.288Z,10.05
2023-10-15T14:13:43.950Z,6.40
2023-10-15T14:16:12.725Z,6.78
2023-10-15T14:18:39.842Z,9.48
2023-10-15T14:21:07.413Z,7.00
2023-10-15T14:23:34.315Z,8.15
2023-10-15T14:26:01.823Z,5.13
2023-10-15T14:28:29.078Z,5.90
2023-10-15T14:30:56.149Z,6.18
2023-10-15T14:33:23.435Z,6.00
2023-10-15T14:35:50.748Z,6.40
2023-10-15T14:38:17.835Z,5.78
2023-10-15T14:40:46.175Z,7.15
2023-10-15T14:43:13.178Z,5.95
2023-10-15T14:45:40.802Z,7.03
2023-10-15T14:48:09.178Z,5.13
2023-10-15T14:50:39.107Z,6.43
2023-10-15T14:53:07.064Z,8.57
2023-10-15T14:55:34.106Z,6.97
2023-10-15T14:58:00.928Z,8.40
2023-10-15T15:00:27.899Z,7.97
2023-10-15T15:02:55.169Z,5.72
2023-10-15T15:05:22.314Z,6.43
2023-10-15T15:07:49.277Z,6.65
2023-10-15T15:10:17.260Z,6.05
2023-10-15T15:12:44.470Z,6.05
2023-10-15T15:15:15.646Z,6.07
2023-10-15T15:17:43.039Z,7.45
2023-10-15T15:20:12.653Z,5.82
2023-10-15T15:22:42.928Z,5.10
2023-10-15T15:25:13.421Z,5.68
2023-10-15T15:27:42.389Z,5.78
2023-10-15T15:30:10.276Z,8.45
2023-10-15T15:32:38.332Z,8.57
2023-10-15T15:35:09.109Z,7.95
2023-10-15T15:37:36.813Z,8.32
2023-10-15T15:40:08.628Z,6.85
2023-10-15T15:42:35.663Z,6.72
2023-10-15T15:45:02.595Z,6.20
2023-10-15T15:47:29.675Z,5.63
2023-10-15T15:49:56.836Z,5.55
2023-10-15T15:52:26.335Z,5.75
2023-10-15T15:54:53.362Z,4.75
2023-10-15T15:57:20.249Z,4.95
2023-10-15T15:59:48.876Z,5.25
2023-10-15T16:02:15.997Z,5.90
2023-10-15T16:04:43.022Z,5.82
2023-10-15T16:07:11.183Z,6.40
2023-10-15T16:09:38.912Z,4.28
2023-10-15T16:12:06.076Z,6.07
2023-10-15T16:14:34.031Z,7.20
2023-10-15T16:17:01.229Z,6.65
2023-10-15T16:19:28.172Z,5.47
2023-10-15T16:21:59.577Z,5.18
2023-10-15T16:24:26.764Z,5.10
2023-10-15T16:26:54.727Z,4.28
2023-10-15T16:29:21.751Z,4.85
2023-10-15T16:31:48.827Z,7.03
2023-10-15T16:34:16.110Z,6.28
2023-10-15T16:36:45.034Z,5.75
2023-10-15T16:39:18.816Z,6.25
2023-10-15T16:41:46.196Z,5.85
2023-10-15T16:44:13.276Z,5.32
2023-10-15T16:46:40.529Z,7.28
2023-10-15T16:49:07.913Z,4.45
2023-10-15T16:51:34.956Z,4.60
2023-10-15T16:54:04.156Z,5.75
2023-10-15T16:56:32.076Z,6.43
2023-10-15T16:58:58.979Z,7.45
2023-10-15T17:01:26.971Z,6.32
2023-10-15T17:03:54.044Z,5.50
2023-10-15T17:06:21.050Z,5.75
2023-10-15T17:08:49.683Z,6.10
2023-10-15T17:11:19.291Z,5.45
2023-10-15T17:13:46.168Z,7.15
2023-10-15T17:16:13.190Z,6.00
2023-10-15T17:18:40.028Z,5.07
2023-10-15T17:21:06.999Z,6.32
2023-10-15T17:23:33.977Z,6.70
2023-10-15T17:26:00.976Z,5.22
2023-10-15T17:28:27.936Z,4.85
2023-10-15T17:30:55.160Z,5.88
2023-10-15T17:33:22.220Z,5.00
2023-10-15T17:35:49.083Z,6.97
2023-10-15T17:38:17.316Z,5.63
2023-10-15T17:40:44.262Z,6.75
2023-10-15T17:43:11.211Z,6.60
2023-10-15T17:45:40.778Z,6.80
2023-10-15T17:48:08.552Z,7.00
2023-10-15T17:50:38.551Z,7.88
2023-10-15T17:53:07.815Z,7.25
2023-10-15T17:55:34.728Z,7.35
2023-10-15T17:58:01.580Z,6.18
2023-10-15T18:00:28.766Z,7.63
2023-10-15T18:02:55.732Z,6.57
2023-10-15T18:05:22.618Z,9.48
2023-10-15T18:07:50.846Z,9.23
2023-10-15T18:10:18.758Z,9.38
2023-10-15T18:12:45.858Z,9.10
2023-10-15T18:15:13.321Z,8.80
2023-10-15T18:17:40.397Z,8.65
2023-10-15T18:20:07.810Z,10.23
2023-10-15T18:22:34.730Z,10.05
2023-10-15T18:25:01.686Z,12.38
2023-10-15T18:27:29.354Z,10.85
2023-10-15T18:29:56.353Z,8.43
2023-10-15T18:32:23.350Z,8.55
2023-10-15T18:34:50.307Z,10.02
2023-10-15T18:37:17.185Z,12.15
2023-10-15T18:39:45.087Z,9.90
2023-10-15T18:42:12.260Z,10.02
2023-10-15T18:44:39.679Z,9.57
2023-10-15T18:47:06.636Z,13.25
2023-10-15T18:49:33.700Z,11.77
2023-10-15T18:52:00.824Z,10.32
2023-10-15T18:54:28.091Z,10.88
2023-10-15T18:56:55.092Z,10.50
2023-10-15T18:59:23.076Z,10.18
2023-10-15T19:01:50.016Z,10.68
2023-10-15T19:04:17.072Z,9.18
2023-10-15T19:06:44.758Z,8.88
2023-10-15T19:09:17.575Z,10.75
2023-10-15T19:11:45.379Z,11.60
2023-10-15T19:14:13.787Z,10.45
2023-10-15T19:16:41.223Z,12.07
2023-10-15T19:19:11.674Z,13.93
2023-10-15T19:21:39.071Z,13.60
2023-10-15T19:24:06.545Z,13.25
2023-10-15T19:26:33.440Z,15.38
2023-10-15T19:29:00.263Z,14.10
2023-10-15T19:31:27.319Z,15.25
2023-10-15T19:33:56.794Z,15.20
2023-10-15T19:36:23.923Z,14.90
2023-10-15T19:38:50.881Z,11.88
2023-10-15T19:41:18.174Z,13.73
2023-10-15T19:43:45.201Z,16.55
2023-10-15T19:46:12.248Z,14.15
2023-10-15T19:48:39.310Z,13.13
2023-10-15T19:51:06.664Z,11.88
2023-10-15T19:53:35.597Z,12.50
2023-10-15T19:56:02.662Z,13.25
2023-10-15T19:58:29.564Z,13.18
2023-10-15T20:00:56.739Z,12.20
2023-10-15T20:03:23.800Z,10.65
2023-10-15T20:05:50.917Z,10.57
2023-10-15T20:08:18.545Z,12.07
2023-10-15T20:10:48.551Z,9.20
2023-10-15T20:13:15.558Z,9.85
2023-10-15T20:15:43.698Z,9.70
2023-10-15T20:18:11.067Z,12.75
2023-10-15T20:20:38.263Z,8.35
2023-10-15T20:23:07.959Z,9.05
2023-10-15T20:25:35.952Z,13.40
2023-10-15T20:28:03.150Z,9.23
2023-10-15T20:30:33.349Z,12.85
2023-10-15T20:33:00.329Z,11.80
2023-10-15T20:35:28.222Z,11.23
2023-10-15T20:37:56.005Z,9.75
2023-10-15T20:40:24.865Z,11.45
2023-10-15T20:42:51.731Z,9.85
2023-10-15T20:45:19.746Z,8.63
2023-10-15T20:47:50.420Z,9.25
2023-10-15T20:50:18.418Z,10.48
2023-10-15T20:52:46.066Z,9.35
2023-10-15T20:55:13.627Z,10.38
2023-10-15T20:57:41.220Z,9.80
2023-10-15T21:00:13.266Z,10.05
2023-10-15T21:02:44.738Z,10.02
2023-10-15T21:05:12.235Z,9.25
2023-10-15T21:07:47.845Z,9.90
2023-10-15T21:10:15.439Z,8.63
2023-10-15T21:12:42.542Z,9.35
2023-10-15T21:15:10.662Z,9.82
2023-10-15T21:17:40.459Z,9.85
2023-10-15T21:20:16.444Z,9.82
2023-10-15T21:22:43.746Z,10.25
2023-10-15T21:25:13.514Z,9.77
2023-10-15T21:27:43.630Z,10.88
2023-10-15T21:30:11.839Z,10.73
2023-10-15T21:32:38.928Z,9.55
2023-10-15T21:35:09.667Z,8.30
2023-10-15T21:37:40.483Z,8.43
2023-10-15T21:40:15.923Z,10.43
2023-10-15T21:42:47.793Z,9.95
2023-10-15T21:45:15.107Z,10.13
2023-10-15T21:47:43.340Z,9.35
2023-10-15T21:50:13.407Z,10.15
2023-10-15T21:52:40.390Z,10.55
2023-10-15T21:55:07.896Z,9.70
2023-10-15T21:57:35.233Z,9.10
2023-10-15T22:00:02.312Z,8.75
2023-10-15T22:02:39.386Z,10.82
2023-10-15T22:05:06.978Z,9.73
2023-10-15T22:07:33.910Z,9.52
2023-10-15T22:10:01.062Z,9.55
2023-10-15T22:12:28.487Z,9.85
2023-10-15T22:14:55.538Z,10.05
2023-10-15T22:17:22.608Z,9.23
2023-10-15T22:19:49.628Z,9.32
2023-10-15T22:22:18.825Z,8.07
2023-10-15T22:24:46.025Z,9.80
2023-10-15T22:27:15.803Z,9.63
2023-10-15T22:29:46.063Z,10.63
2023-10-15T22:32:13.075Z,9.15
2023-10-15T22:34:40.057Z,8.35
2023-10-15T22:37:07.457Z,8.50
2023-10-15T22:39:37.652Z,8.70
2023-10-15T22:42:12.078Z,8.80
2023-10-15T22:44:45.565Z,10.73
2023-10-15T22:47:14.104Z,9.90
2023-10-15T22:49:41.941Z,10.10
2023-10-15T22:52:09.107Z,9.02
2023-10-15T22:54:36.319Z,9.77
2023-10-15T22:57:04.837Z,8.75
2023-10-15T22:59:32.673Z,8.35
2023-10-15T23:01:59.837Z,9.82
2023-10-15T23:04:27.750Z,8.73
2023-10-15T23:06:55.221Z,9.50
2023-10-15T23:09:22.709Z,7.43
2023-10-15T23:11:50.117Z,8.70
2023-10-15T23:14:17.334Z,8.40
2023-10-15T23:16:46.264Z,9.23
2023-10-15T23:19:16.982Z,9.48
2023-10-15T23:21:50.019Z,8.05
2023-10-15T23:24:19.285Z,9.15
2023-10-15T23:26:46.960Z,9.90
2023-10-15T23:29:13.811Z,9.52
2023-10-15T23:31:40.967Z,9.95
2023-10-15T23:34:09.829Z,8.45
2023-10-15T23:36:37.130Z,8.43
2023-10-15T23:39:17.057Z,11.15
2023-10-15T23:41:50.676Z,8.40
2023-10-15T23:44:22.606Z,9.43
2023-10-15T23:46:49.774Z,10.98
2023-10-15T23:49:26.589Z,7.75
2023-10-15T23:51:53.660Z,10.65
2023-10-15T23:54:27.908Z,9.18
2023-10-15T23:56:55.142Z,10.05
2023-10-15T23:59:22.745Z,8.90
